Morozovsk, Russia
Current Conditions -  °F | °C
As of 6:00 PM on Wednesday 22 Oct 2014 (Local Time) from URWW Reporting Station
Scattered Clouds Scattered Clouds  
Wind Chill: 45°   Ceiling: Unl
Heat Index: 48°   Visibility: 6mi
Dew Point: 43°   Wind: 7mph
Humidity: 82%   Direction: 30°NNE
Pressure: 29.83"   Gusts: NA
Location:  48.35°N, 41.83°E
Report Text: URWW 221500Z 03003MPS 9999 SCT033 SCT100 09/06 Q1010 NOSIG RMKSC070
Loading
Personal Weather Stations






























Interactive Weather Map
Tropical Storm Tracking
New forecast layout! Learn more

10-Day Weather Forecast

Advertisements
Track Severe Weather on mobile